sensor_id;sensor_type;location;lat;lon;timestamp;P1;durP1;ratioP1;P2;durP2;ratioP2
70946;SDS011;58605;48.700;8.760;2022-10-22T00:01:04;2.30;;;1.10;;
70946;SDS011;58605;48.700;8.760;2022-10-22T00:03:32;1.73;;;1.17;;
70946;SDS011;58605;48.700;8.760;2022-10-22T00:05:58;1.93;;;1.53;;
70946;SDS011;58605;48.700;8.760;2022-10-22T00:08:24;2.37;;;1.30;;
70946;SDS011;58605;48.700;8.760;2022-10-22T00:10:50;1.40;;;1.30;;
70946;SDS011;58605;48.700;8.760;2022-10-22T00:13:17;2.33;;;1.30;;
70946;SDS011;58605;48.700;8.760;2022-10-22T00:15:43;1.40;;;1.30;;
70946;SDS011;58605;48.700;8.760;2022-10-22T00:18:09;2.00;;;1.13;;
70946;SDS011;58605;48.700;8.760;2022-10-22T00:20:37;1.30;;;1.20;;
70946;SDS011;58605;48.700;8.760;2022-10-22T00:23:03;2.40;;;1.20;;
70946;SDS011;58605;48.700;8.760;2022-10-22T00:25:29;1.23;;;1.10;;
70946;SDS011;58605;48.700;8.760;2022-10-22T00:27:58;1.13;;;1.03;;
70946;SDS011;58605;48.700;8.760;2022-10-22T00:30:24;1.00;;;1.00;;
70946;SDS011;58605;48.700;8.760;2022-10-22T00:32:50;2.33;;;1.30;;
70946;SDS011;58605;48.700;8.760;2022-10-22T00:35:16;3.70;;;1.63;;
70946;SDS011;58605;48.700;8.760;2022-10-22T00:37:43;2.33;;;1.40;;
70946;SDS011;58605;48.700;8.760;2022-10-22T00:40:09;1.87;;;1.40;;
70946;SDS011;58605;48.700;8.760;2022-10-22T00:42:36;1.40;;;1.30;;
70946;SDS011;58605;48.700;8.760;2022-10-22T00:45:05;2.17;;;1.27;;
70946;SDS011;58605;48.700;8.760;2022-10-22T00:47:40;2.13;;;1.37;;
70946;SDS011;58605;48.700;8.760;2022-10-22T00:50:08;1.30;;;1.10;;
70946;SDS011;58605;48.700;8.760;2022-10-22T00:52:38;2.10;;;1.40;;
70946;SDS011;58605;48.700;8.760;2022-10-22T00:55:07;1.37;;;1.10;;
70946;SDS011;58605;48.700;8.760;2022-10-22T00:57:33;1.10;;;1.10;;
70946;SDS011;58605;48.700;8.760;2022-10-22T01:00:00;0.90;;;0.90;;
70946;SDS011;58605;48.700;8.760;2022-10-22T01:02:41;1.87;;;1.20;;
70946;SDS011;58605;48.700;8.760;2022-10-22T01:05:08;1.30;;;1.17;;
70946;SDS011;58605;48.700;8.760;2022-10-22T01:07:34;1.20;;;1.10;;
70946;SDS011;58605;48.700;8.760;2022-10-22T01:10:09;2.43;;;1.33;;
70946;SDS011;58605;48.700;8.760;2022-10-22T01:12:45;2.50;;;1.40;;
70946;SDS011;58605;48.700;8.760;2022-10-22T01:15:21;1.27;;;1.10;;
70946;SDS011;58605;48.700;8.760;2022-10-22T01:17:53;1.07;;;1.03;;
70946;SDS011;58605;48.700;8.760;2022-10-22T01:20:38;1.40;;;1.20;;
70946;SDS011;58605;48.700;8.760;2022-10-22T01:23:39;1.20;;;1.10;;
70946;SDS011;58605;48.700;8.760;2022-10-22T01:26:32;1.57;;;1.00;;
70946;SDS011;58605;48.700;8.760;2022-10-22T01:29:14;3.27;;;1.40;;
70946;SDS011;58605;48.700;8.760;2022-10-22T01:31:45;1.37;;;1.10;;
70946;SDS011;58605;48.700;8.760;2022-10-22T01:34:14;1.40;;;1.30;;
70946;SDS011;58605;48.700;8.760;2022-10-22T01:36:43;1.63;;;1.37;;
70946;SDS011;58605;48.700;8.760;2022-10-22T01:39:10;2.90;;;1.20;;
70946;SDS011;58605;48.700;8.760;2022-10-22T01:41:38;1.87;;;1.27;;
70946;SDS011;58605;48.700;8.760;2022-10-22T01:44:22;1.37;;;1.23;;
70946;SDS011;58605;48.700;8.760;2022-10-22T01:46:49;1.13;;;1.13;;
70946;SDS011;58605;48.700;8.760;2022-10-22T01:49:21;1.37;;;1.27;;
70946;SDS011;58605;48.700;8.760;2022-10-22T01:51:58;2.30;;;1.40;;
70946;SDS011;58605;48.700;8.760;2022-10-22T01:54:34;5.87;;;1.87;;
70946;SDS011;58605;48.700;8.760;2022-10-22T01:57:07;1.77;;;1.27;;
70946;SDS011;58605;48.700;8.760;2022-10-22T01:59:43;1.40;;;1.30;;
70946;SDS011;58605;48.700;8.760;2022-10-22T02:02:18;2.07;;;1.27;;
70946;SDS011;58605;48.700;8.760;2022-10-22T02:04:52;3.43;;;1.60;;
70946;SDS011;58605;48.700;8.760;2022-10-22T02:07:23;5.07;;;1.40;;
70946;SDS011;58605;48.700;8.760;2022-10-22T02:09:55;2.17;;;1.50;;
70946;SDS011;58605;48.700;8.760;2022-10-22T02:12:23;2.73;;;1.40;;
70946;SDS011;58605;48.700;8.760;2022-10-22T02:14:53;1.20;;;1.10;;
70946;SDS011;58605;48.700;8.760;2022-10-22T02:17:21;1.90;;;1.20;;
70946;SDS011;58605;48.700;8.760;2022-10-22T02:19:51;1.23;;;1.13;;
70946;SDS011;58605;48.700;8.760;2022-10-22T02:22:20;3.73;;;1.50;;
70946;SDS011;58605;48.700;8.760;2022-10-22T02:24:46;1.97;;;1.50;;
70946;SDS011;58605;48.700;8.760;2022-10-22T02:27:16;3.27;;;1.50;;
70946;SDS011;58605;48.700;8.760;2022-10-22T02:29:48;3.30;;;1.33;;
70946;SDS011;58605;48.700;8.760;2022-10-22T02:32:20;1.80;;;1.40;;
70946;SDS011;58605;48.700;8.760;2022-10-22T02:34:51;2.17;;;1.43;;
70946;SDS011;58605;48.700;8.760;2022-10-22T02:37:18;1.23;;;1.23;;
70946;SDS011;58605;48.700;8.760;2022-10-22T02:39:46;2.50;;;1.20;;
70946;SDS011;58605;48.700;8.760;2022-10-22T02:42:13;1.30;;;1.20;;
70946;SDS011;58605;48.700;8.760;2022-10-22T02:44:39;1.60;;;1.10;;
70946;SDS011;58605;48.700;8.760;2022-10-22T02:47:05;1.97;;;1.40;;
70946;SDS011;58605;48.700;8.760;2022-10-22T02:49:32;1.30;;;1.20;;
70946;SDS011;58605;48.700;8.760;2022-10-22T02:51:58;1.93;;;1.20;;
70946;SDS011;58605;48.700;8.760;2022-10-22T02:54:25;1.20;;;1.20;;
70946;SDS011;58605;48.700;8.760;2022-10-22T02:56:51;1.00;;;1.00;;
70946;SDS011;58605;48.700;8.760;2022-10-22T02:59:17;3.47;;;1.30;;
70946;SDS011;58605;48.700;8.760;2022-10-22T03:01:43;2.73;;;1.40;;
70946;SDS011;58605;48.700;8.760;2022-10-22T03:04:09;8.10;;;1.80;;
70946;SDS011;58605;48.700;8.760;2022-10-22T03:06:36;1.47;;;1.37;;
70946;SDS011;58605;48.700;8.760;2022-10-22T03:09:02;2.80;;;1.30;;
70946;SDS011;58605;48.700;8.760;2022-10-22T03:11:28;1.00;;;1.00;;
70946;SDS011;58605;48.700;8.760;2022-10-22T03:13:54;2.47;;;1.20;;
70946;SDS011;58605;48.700;8.760;2022-10-22T03:16:20;1.10;;;1.00;;
70946;SDS011;58605;48.700;8.760;2022-10-22T03:18:46;1.20;;;1.10;;
70946;SDS011;58605;48.700;8.760;2022-10-22T03:21:14;1.30;;;1.20;;
70946;SDS011;58605;48.700;8.760;2022-10-22T03:23:49;1.57;;;1.23;;
70946;SDS011;58605;48.700;8.760;2022-10-22T03:26:16;2.30;;;1.27;;
70946;SDS011;58605;48.700;8.760;2022-10-22T03:28:42;2.50;;;0.97;;
70946;SDS011;58605;48.700;8.760;2022-10-22T03:31:10;2.00;;;1.30;;
70946;SDS011;58605;48.700;8.760;2022-10-22T03:33:36;1.23;;;1.13;;
70946;SDS011;58605;48.700;8.760;2022-10-22T03:36:03;1.40;;;1.30;;
70946;SDS011;58605;48.700;8.760;2022-10-22T03:38:30;1.60;;;1.10;;
70946;SDS011;58605;48.700;8.760;2022-10-22T03:40:58;1.10;;;1.10;;
70946;SDS011;58605;48.700;8.760;2022-10-22T03:43:24;1.20;;;1.03;;
70946;SDS011;58605;48.700;8.760;2022-10-22T03:45:50;1.40;;;1.30;;
70946;SDS011;58605;48.700;8.760;2022-10-22T03:48:16;1.53;;;1.43;;
70946;SDS011;58605;48.700;8.760;2022-10-22T03:50:42;2.10;;;1.20;;
70946;SDS011;58605;48.700;8.760;2022-10-22T03:53:08;2.57;;;1.20;;
70946;SDS011;58605;48.700;8.760;2022-10-22T03:55:34;1.30;;;1.20;;
70946;SDS011;58605;48.700;8.760;2022-10-22T03:58:03;1.10;;;1.00;;
70946;SDS011;58605;48.700;8.760;2022-10-22T04:00:29;1.70;;;1.10;;
70946;SDS011;58605;48.700;8.760;2022-10-22T04:02:55;1.20;;;1.10;;
70946;SDS011;58605;48.700;8.760;2022-10-22T04:05:22;1.80;;;1.10;;
70946;SDS011;58605;48.700;8.760;2022-10-22T04:07:48;1.67;;;1.20;;
70946;SDS011;58605;48.700;8.760;2022-10-22T04:10:14;1.77;;;1.30;;
70946;SDS011;58605;48.700;8.760;2022-10-22T04:12:40;1.00;;;1.00;;
70946;SDS011;58605;48.700;8.760;2022-10-22T04:15:08;1.90;;;1.20;;
70946;SDS011;58605;48.700;8.760;2022-10-22T04:17:34;1.30;;;1.20;;
70946;SDS011;58605;48.700;8.760;2022-10-22T04:20:01;1.80;;;1.20;;
70946;SDS011;58605;48.700;8.760;2022-10-22T04:22:28;2.80;;;1.73;;
70946;SDS011;58605;48.700;8.760;2022-10-22T04:24:54;1.80;;;1.30;;
70946;SDS011;58605;48.700;8.760;2022-10-22T04:27:20;2.13;;;1.30;;
70946;SDS011;58605;48.700;8.760;2022-10-22T04:29:46;1.17;;;1.07;;
70946;SDS011;58605;48.700;8.760;2022-10-22T04:32:14;1.40;;;1.30;;
70946;SDS011;58605;48.700;8.760;2022-10-22T04:34:39;1.30;;;1.20;;
70946;SDS011;58605;48.700;8.760;2022-10-22T04:37:05;1.35;;;1.25;;
70946;SDS011;58605;48.700;8.760;2022-10-22T04:39:31;1.53;;;1.43;;
70946;SDS011;58605;48.700;8.760;2022-10-22T04:41:57;1.60;;;1.23;;
70946;SDS011;58605;48.700;8.760;2022-10-22T04:44:23;1.50;;;1.20;;
70946;SDS011;58605;48.700;8.760;2022-10-22T04:46:50;0.97;;;0.97;;
70946;SDS011;58605;48.700;8.760;2022-10-22T04:49:17;2.30;;;1.20;;
70946;SDS011;58605;48.700;8.760;2022-10-22T04:51:43;1.23;;;1.13;;
70946;SDS011;58605;48.700;8.760;2022-10-22T04:54:10;1.10;;;1.03;;
70946;SDS011;58605;48.700;8.760;2022-10-22T04:56:36;2.37;;;1.37;;
70946;SDS011;58605;48.700;8.760;2022-10-22T04:59:04;2.20;;;1.50;;
70946;SDS011;58605;48.700;8.760;2022-10-22T05:01:32;3.27;;;1.20;;
70946;SDS011;58605;48.700;8.760;2022-10-22T05:04:00;1.40;;;1.10;;
70946;SDS011;58605;48.700;8.760;2022-10-22T05:06:29;2.83;;;1.30;;
70946;SDS011;58605;48.700;8.760;2022-10-22T05:08:56;0.97;;;0.97;;
70946;SDS011;58605;48.700;8.760;2022-10-22T05:11:24;1.77;;;1.30;;
70946;SDS011;58605;48.700;8.760;2022-10-22T05:13:52;1.50;;;1.30;;
70946;SDS011;58605;48.700;8.760;2022-10-22T05:16:20;1.00;;;1.00;;
70946;SDS011;58605;48.700;8.760;2022-10-22T05:18:46;8.77;;;1.48;;
70946;SDS011;58605;48.700;8.760;2022-10-22T05:21:12;1.20;;;1.10;;
70946;SDS011;58605;48.700;8.760;2022-10-22T05:23:42;2.00;;;1.27;;
70946;SDS011;58605;48.700;8.760;2022-10-22T05:26:09;1.30;;;1.20;;
70946;SDS011;58605;48.700;8.760;2022-10-22T05:28:36;2.13;;;1.30;;
70946;SDS011;58605;48.700;8.760;2022-10-22T05:31:03;1.27;;;1.17;;
70946;SDS011;58605;48.700;8.760;2022-10-22T05:33:30;1.30;;;1.20;;
70946;SDS011;58605;48.700;8.760;2022-10-22T05:35:57;4.10;;;1.50;;
70946;SDS011;58605;48.700;8.760;2022-10-22T05:38:24;1.40;;;1.30;;
70946;SDS011;58605;48.700;8.760;2022-10-22T05:40:59;1.20;;;1.20;;
70946;SDS011;58605;48.700;8.760;2022-10-22T05:43:25;3.40;;;1.33;;
70946;SDS011;58605;48.700;8.760;2022-10-22T05:45:51;1.50;;;1.40;;
70946;SDS011;58605;48.700;8.760;2022-10-22T05:48:17;1.40;;;1.30;;
70946;SDS011;58605;48.700;8.760;2022-10-22T05:50:43;1.03;;;1.00;;
70946;SDS011;58605;48.700;8.760;2022-10-22T05:53:15;3.23;;;1.73;;
70946;SDS011;58605;48.700;8.760;2022-10-22T05:55:40;1.60;;;1.15;;
70946;SDS011;58605;48.700;8.760;2022-10-22T05:58:08;1.10;;;1.00;;
70946;SDS011;58605;48.700;8.760;2022-10-22T06:00:36;1.30;;;1.20;;
70946;SDS011;58605;48.700;8.760;2022-10-22T06:03:02;2.40;;;1.43;;
70946;SDS011;58605;48.700;8.760;2022-10-22T06:05:28;2.87;;;1.33;;
70946;SDS011;58605;48.700;8.760;2022-10-22T06:07:54;1.60;;;1.50;;
70946;SDS011;58605;48.700;8.760;2022-10-22T06:10:21;2.43;;;1.13;;
70946;SDS011;58605;48.700;8.760;2022-10-22T06:12:48;1.60;;;1.40;;
70946;SDS011;58605;48.700;8.760;2022-10-22T06:15:16;1.27;;;1.17;;
70946;SDS011;58605;48.700;8.760;2022-10-22T06:17:43;1.30;;;1.20;;
70946;SDS011;58605;48.700;8.760;2022-10-22T06:20:10;2.00;;;1.23;;
70946;SDS011;58605;48.700;8.760;2022-10-22T06:22:36;1.13;;;1.10;;
70946;SDS011;58605;48.700;8.760;2022-10-22T06:25:03;1.83;;;1.60;;
70946;SDS011;58605;48.700;8.760;2022-10-22T06:27:30;1.50;;;1.40;;
70946;SDS011;58605;48.700;8.760;2022-10-22T06:29:56;2.70;;;1.63;;
70946;SDS011;58605;48.700;8.760;2022-10-22T06:32:23;1.20;;;1.10;;
70946;SDS011;58605;48.700;8.760;2022-10-22T06:34:49;1.40;;;1.30;;
70946;SDS011;58605;48.700;8.760;2022-10-22T06:37:16;2.83;;;1.30;;
70946;SDS011;58605;48.700;8.760;2022-10-22T06:39:42;1.50;;;1.20;;
70946;SDS011;58605;48.700;8.760;2022-10-22T06:42:08;1.20;;;1.20;;
70946;SDS011;58605;48.700;8.760;2022-10-22T06:44:34;1.38;;;1.27;;
70946;SDS011;58605;48.700;8.760;2022-10-22T06:47:00;1.23;;;1.23;;
70946;SDS011;58605;48.700;8.760;2022-10-22T06:49:27;1.63;;;1.30;;
70946;SDS011;58605;48.700;8.760;2022-10-22T06:51:53;1.60;;;1.20;;
70946;SDS011;58605;48.700;8.760;2022-10-22T06:54:20;3.35;;;1.58;;
70946;SDS011;58605;48.700;8.760;2022-10-22T06:56:46;1.30;;;1.20;;
70946;SDS011;58605;48.700;8.760;2022-10-22T06:59:12;1.83;;;1.07;;
70946;SDS011;58605;48.700;8.760;2022-10-22T07:01:39;1.20;;;1.10;;
70946;SDS011;58605;48.700;8.760;2022-10-22T07:04:05;1.63;;;1.33;;
70946;SDS011;58605;48.700;8.760;2022-10-22T07:06:34;1.40;;;1.30;;
70946;SDS011;58605;48.700;8.760;2022-10-22T07:09:00;1.38;;;1.27;;
70946;SDS011;58605;48.700;8.760;2022-10-22T07:11:27;2.05;;;1.10;;
70946;SDS011;58605;48.700;8.760;2022-10-22T07:13:56;1.50;;;1.40;;
70946;SDS011;58605;48.700;8.760;2022-10-22T07:16:23;3.70;;;1.57;;
70946;SDS011;58605;48.700;8.760;2022-10-22T07:18:49;1.55;;;1.45;;
70946;SDS011;58605;48.700;8.760;2022-10-22T07:21:17;1.60;;;1.50;;
70946;SDS011;58605;48.700;8.760;2022-10-22T07:23:46;1.45;;;1.08;;
70946;SDS011;58605;48.700;8.760;2022-10-22T07:26:13;1.58;;;1.48;;
70946;SDS011;58605;48.700;8.760;2022-10-22T07:28:40;1.83;;;1.50;;
70946;SDS011;58605;48.700;8.760;2022-10-22T07:31:06;1.63;;;1.50;;
70946;SDS011;58605;48.700;8.760;2022-10-22T07:33:34;1.63;;;1.53;;
70946;SDS011;58605;48.700;8.760;2022-10-22T07:36:02;1.63;;;1.50;;
70946;SDS011;58605;48.700;8.760;2022-10-22T07:38:29;1.50;;;1.40;;
70946;SDS011;58605;48.700;8.760;2022-10-22T07:40:57;1.98;;;1.70;;
70946;SDS011;58605;48.700;8.760;2022-10-22T07:43:23;2.13;;;1.93;;
70946;SDS011;58605;48.700;8.760;2022-10-22T07:45:50;2.05;;;1.88;;
70946;SDS011;58605;48.700;8.760;2022-10-22T07:48:16;1.90;;;1.80;;
70946;SDS011;58605;48.700;8.760;2022-10-22T07:50:42;2.70;;;1.58;;
70946;SDS011;58605;48.700;8.760;2022-10-22T07:53:16;2.50;;;1.70;;
70946;SDS011;58605;48.700;8.760;2022-10-22T07:55:42;5.33;;;1.87;;
70946;SDS011;58605;48.700;8.760;2022-10-22T07:58:09;1.60;;;1.50;;
70946;SDS011;58605;48.700;8.760;2022-10-22T08:00:37;2.10;;;1.65;;
70946;SDS011;58605;48.700;8.760;2022-10-22T08:03:03;1.70;;;1.60;;
70946;SDS011;58605;48.700;8.760;2022-10-22T08:05:29;2.17;;;1.27;;
70946;SDS011;58605;48.700;8.760;2022-10-22T08:07:55;1.67;;;1.40;;
70946;SDS011;58605;48.700;8.760;2022-10-22T08:10:21;1.70;;;1.60;;
70946;SDS011;58605;48.700;8.760;2022-10-22T08:12:47;2.15;;;1.80;;
70946;SDS011;58605;48.700;8.760;2022-10-22T08:15:15;2.35;;;1.70;;
70946;SDS011;58605;48.700;8.760;2022-10-22T08:17:41;1.42;;;1.30;;
70946;SDS011;58605;48.700;8.760;2022-10-22T08:20:07;1.92;;;1.40;;
70946;SDS011;58605;48.700;8.760;2022-10-22T08:22:34;8.10;;;2.22;;
70946;SDS011;58605;48.700;8.760;2022-10-22T08:24:59;1.67;;;1.58;;
70946;SDS011;58605;48.700;8.760;2022-10-22T08:27:26;3.22;;;2.45;;
70946;SDS011;58605;48.700;8.760;2022-10-22T08:29:52;5.22;;;1.83;;
70946;SDS011;58605;48.700;8.760;2022-10-22T08:32:19;1.70;;;1.60;;
70946;SDS011;58605;48.700;8.760;2022-10-22T08:34:45;2.08;;;1.70;;
70946;SDS011;58605;48.700;8.760;2022-10-22T08:37:11;1.95;;;1.70;;
70946;SDS011;58605;48.700;8.760;2022-10-22T08:39:38;3.40;;;1.73;;
70946;SDS011;58605;48.700;8.760;2022-10-22T08:42:07;1.52;;;1.42;;
70946;SDS011;58605;48.700;8.760;2022-10-22T08:44:59;2.15;;;1.70;;
70946;SDS011;58605;48.700;8.760;2022-10-22T08:47:44;2.85;;;1.70;;
70946;SDS011;58605;48.700;8.760;2022-10-22T08:50:29;1.60;;;1.50;;
70946;SDS011;58605;48.700;8.760;2022-10-22T08:52:58;1.33;;;1.27;;
70946;SDS011;58605;48.700;8.760;2022-10-22T08:55:28;3.00;;;1.90;;
70946;SDS011;58605;48.700;8.760;2022-10-22T08:58:03;1.58;;;1.48;;
70946;SDS011;58605;48.700;8.760;2022-10-22T09:00:43;1.77;;;1.60;;
70946;SDS011;58605;48.700;8.760;2022-10-22T09:03:18;2.72;;;1.70;;
70946;SDS011;58605;48.700;8.760;2022-10-22T09:05:55;1.63;;;1.53;;
70946;SDS011;58605;48.700;8.760;2022-10-22T09:08:26;2.25;;;1.38;;
70946;SDS011;58605;48.700;8.760;2022-10-22T09:10:55;1.30;;;1.20;;
70946;SDS011;58605;48.700;8.760;2022-10-22T09:13:25;1.88;;;1.77;;
70946;SDS011;58605;48.700;8.760;2022-10-22T09:15:51;2.60;;;1.40;;
70946;SDS011;58605;48.700;8.760;2022-10-22T09:18:27;1.77;;;1.50;;
70946;SDS011;58605;48.700;8.760;2022-10-22T09:21:02;1.90;;;1.33;;
70946;SDS011;58605;48.700;8.760;2022-10-22T09:23:36;1.90;;;1.50;;
70946;SDS011;58605;48.700;8.760;2022-10-22T09:26:14;1.50;;;1.40;;
70946;SDS011;58605;48.700;8.760;2022-10-22T09:28:41;2.43;;;1.60;;
70946;SDS011;58605;48.700;8.760;2022-10-22T09:31:09;1.70;;;1.60;;
70946;SDS011;58605;48.700;8.760;2022-10-22T09:33:38;3.23;;;1.60;;
70946;SDS011;58605;48.700;8.760;2022-10-22T09:36:05;1.85;;;1.50;;
70946;SDS011;58605;48.700;8.760;2022-10-22T09:38:33;1.60;;;1.50;;
70946;SDS011;58605;48.700;8.760;2022-10-22T09:41:03;2.80;;;1.30;;
70946;SDS011;58605;48.700;8.760;2022-10-22T09:43:30;2.23;;;1.53;;
70946;SDS011;58605;48.700;8.760;2022-10-22T09:45:58;1.67;;;1.50;;
70946;SDS011;58605;48.700;8.760;2022-10-22T09:48:27;2.37;;;1.43;;
70946;SDS011;58605;48.700;8.760;2022-10-22T09:50:58;1.80;;;1.50;;
70946;SDS011;58605;48.700;8.760;2022-10-22T09:53:29;3.05;;;1.70;;
70946;SDS011;58605;48.700;8.760;2022-10-22T09:56:00;2.63;;;1.50;;
70946;SDS011;58605;48.700;8.760;2022-10-22T09:58:39;1.83;;;1.73;;
70946;SDS011;58605;48.700;8.760;2022-10-22T10:01:06;2.00;;;1.90;;
70946;SDS011;58605;48.700;8.760;2022-10-22T10:03:33;3.07;;;1.73;;
70946;SDS011;58605;48.700;8.760;2022-10-22T10:06:00;1.87;;;1.60;;
70946;SDS011;58605;48.700;8.760;2022-10-22T10:08:27;2.10;;;1.80;;
70946;SDS011;58605;48.700;8.760;2022-10-22T10:10:55;3.50;;;1.90;;
70946;SDS011;58605;48.700;8.760;2022-10-22T10:13:37;2.03;;;1.73;;
70946;SDS011;58605;48.700;8.760;2022-10-22T10:16:18;4.73;;;1.97;;
70946;SDS011;58605;48.700;8.760;2022-10-22T10:21:48;1.93;;;1.80;;
70946;SDS011;58605;48.700;8.760;2022-10-22T10:24:24;2.00;;;1.80;;
70946;SDS011;58605;48.700;8.760;2022-10-22T10:27:01;2.83;;;1.90;;
70946;SDS011;58605;48.700;8.760;2022-10-22T10:29:37;3.08;;;1.80;;
70946;SDS011;58605;48.700;8.760;2022-10-22T10:32:18;2.73;;;1.90;;
70946;SDS011;58605;48.700;8.760;2022-10-22T10:35:00;3.17;;;1.85;;
70946;SDS011;58605;48.700;8.760;2022-10-22T10:37:42;1.70;;;1.60;;
70946;SDS011;58605;48.700;8.760;2022-10-22T10:40:18;2.97;;;1.90;;
70946;SDS011;58605;48.700;8.760;2022-10-22T10:42:51;3.13;;;1.70;;
70946;SDS011;58605;48.700;8.760;2022-10-22T10:45:23;4.00;;;1.93;;
70946;SDS011;58605;48.700;8.760;2022-10-22T10:51:06;5.63;;;2.10;;
70946;SDS011;58605;48.700;8.760;2022-10-22T10:53:42;2.30;;;1.92;;
70946;SDS011;58605;48.700;8.760;2022-10-22T10:56:22;4.80;;;2.10;;
70946;SDS011;58605;48.700;8.760;2022-10-22T10:59:00;4.30;;;2.00;;
70946;SDS011;58605;48.700;8.760;2022-10-22T11:01:36;3.38;;;1.85;;
70946;SDS011;58605;48.700;8.760;2022-10-22T11:07:06;2.40;;;1.80;;
70946;SDS011;58605;48.700;8.760;2022-10-22T11:09:40;2.75;;;1.90;;
70946;SDS011;58605;48.700;8.760;2022-10-22T11:12:11;4.70;;;2.20;;
70946;SDS011;58605;48.700;8.760;2022-10-22T11:14:45;2.42;;;2.20;;
70946;SDS011;58605;48.700;8.760;2022-10-22T11:17:20;2.33;;;2.00;;
70946;SDS011;58605;48.700;8.760;2022-10-22T11:19:50;2.53;;;1.83;;
70946;SDS011;58605;48.700;8.760;2022-10-22T11:22:20;3.08;;;2.00;;
70946;SDS011;58605;48.700;8.760;2022-10-22T11:24:52;3.40;;;1.80;;
70946;SDS011;58605;48.700;8.760;2022-10-22T11:27:25;3.80;;;1.88;;
70946;SDS011;58605;48.700;8.760;2022-10-22T11:29:57;5.72;;;3.03;;
70946;SDS011;58605;48.700;8.760;2022-10-22T11:32:26;2.90;;;1.90;;
70946;SDS011;58605;48.700;8.760;2022-10-22T11:34:53;4.77;;;2.23;;
70946;SDS011;58605;48.700;8.760;2022-10-22T11:37:22;2.88;;;2.58;;
70946;SDS011;58605;48.700;8.760;2022-10-22T11:39:57;4.13;;;2.00;;
70946;SDS011;58605;48.700;8.760;2022-10-22T11:42:30;5.50;;;2.50;;
70946;SDS011;58605;48.700;8.760;2022-10-22T11:44:58;2.78;;;1.92;;
70946;SDS011;58605;48.700;8.760;2022-10-22T11:47:27;4.80;;;2.67;;
70946;SDS011;58605;48.700;8.760;2022-10-22T11:49:57;5.45;;;2.72;;
70946;SDS011;58605;48.700;8.760;2022-10-22T11:52:36;4.15;;;2.50;;
70946;SDS011;58605;48.700;8.760;2022-10-22T11:55:26;3.92;;;2.45;;
70946;SDS011;58605;48.700;8.760;2022-10-22T11:57:59;4.65;;;2.20;;
70946;SDS011;58605;48.700;8.760;2022-10-22T12:00:33;5.50;;;2.30;;
70946;SDS011;58605;48.700;8.760;2022-10-22T12:03:13;4.55;;;2.45;;
70946;SDS011;58605;48.700;8.760;2022-10-22T12:05:42;2.85;;;2.10;;
70946;SDS011;58605;48.700;8.760;2022-10-22T12:10:59;5.15;;;2.75;;
70946;SDS011;58605;48.700;8.760;2022-10-22T12:13:31;5.70;;;2.70;;
70946;SDS011;58605;48.700;8.760;2022-10-22T12:16:00;5.78;;;2.40;;
70946;SDS011;58605;48.700;8.760;2022-10-22T12:18:30;6.78;;;2.53;;
70946;SDS011;58605;48.700;8.760;2022-10-22T12:21:02;5.80;;;2.80;;
70946;SDS011;58605;48.700;8.760;2022-10-22T12:23:30;3.17;;;2.15;;
70946;SDS011;58605;48.700;8.760;2022-10-22T12:26:01;5.25;;;2.30;;
70946;SDS011;58605;48.700;8.760;2022-10-22T12:28:29;5.70;;;2.53;;
70946;SDS011;58605;48.700;8.760;2022-10-22T12:31:03;7.07;;;4.80;;
70946;SDS011;58605;48.700;8.760;2022-10-22T12:33:29;4.68;;;2.72;;
70946;SDS011;58605;48.700;8.760;2022-10-22T12:35:56;4.45;;;3.90;;
70946;SDS011;58605;48.700;8.760;2022-10-22T12:38:28;3.60;;;2.78;;
70946;SDS011;58605;48.700;8.760;2022-10-22T12:40:54;4.68;;;3.25;;
70946;SDS011;58605;48.700;8.760;2022-10-22T12:43:24;4.68;;;2.83;;
70946;SDS011;58605;48.700;8.760;2022-10-22T12:45:52;4.43;;;3.55;;
70946;SDS011;58605;48.700;8.760;2022-10-22T12:48:19;4.18;;;3.20;;
70946;SDS011;58605;48.700;8.760;2022-10-22T12:50:48;8.98;;;3.45;;
70946;SDS011;58605;48.700;8.760;2022-10-22T12:53:17;6.53;;;3.08;;
70946;SDS011;58605;48.700;8.760;2022-10-22T12:55:47;4.55;;;2.65;;
70946;SDS011;58605;48.700;8.760;2022-10-22T12:58:16;3.92;;;2.42;;
70946;SDS011;58605;48.700;8.760;2022-10-22T13:00:46;4.55;;;2.58;;
70946;SDS011;58605;48.700;8.760;2022-10-22T13:03:19;5.95;;;2.47;;
70946;SDS011;58605;48.700;8.760;2022-10-22T13:05:51;3.25;;;1.90;;
70946;SDS011;58605;48.700;8.760;2022-10-22T13:08:18;3.30;;;1.90;;
70946;SDS011;58605;48.700;8.760;2022-10-22T13:10:48;3.38;;;2.10;;
70946;SDS011;58605;48.700;8.760;2022-10-22T13:13:29;2.95;;;1.92;;
70946;SDS011;58605;48.700;8.760;2022-10-22T13:18:44;1.92;;;1.63;;
70946;SDS011;58605;48.700;8.760;2022-10-22T13:21:25;2.08;;;1.60;;
70946;SDS011;58605;48.700;8.760;2022-10-22T13:23:54;3.55;;;1.60;;
70946;SDS011;58605;48.700;8.760;2022-10-22T13:26:22;2.40;;;1.67;;
70946;SDS011;58605;48.700;8.760;2022-10-22T13:28:55;3.47;;;1.83;;
70946;SDS011;58605;48.700;8.760;2022-10-22T13:31:24;5.85;;;1.65;;
70946;SDS011;58605;48.700;8.760;2022-10-22T13:33:52;5.03;;;2.00;;
70946;SDS011;58605;48.700;8.760;2022-10-22T13:36:20;4.15;;;1.95;;
70946;SDS011;58605;48.700;8.760;2022-10-22T13:38:46;2.67;;;1.60;;
70946;SDS011;58605;48.700;8.760;2022-10-22T13:41:20;4.87;;;1.50;;
70946;SDS011;58605;48.700;8.760;2022-10-22T13:43:47;2.22;;;1.55;;
70946;SDS011;58605;48.700;8.760;2022-10-22T13:46:13;2.35;;;1.70;;
70946;SDS011;58605;48.700;8.760;2022-10-22T13:48:41;3.92;;;1.80;;
70946;SDS011;58605;48.700;8.760;2022-10-22T13:51:11;2.72;;;1.75;;
70946;SDS011;58605;48.700;8.760;2022-10-22T13:53:39;4.60;;;1.75;;
70946;SDS011;58605;48.700;8.760;2022-10-22T13:56:05;4.05;;;1.75;;
70946;SDS011;58605;48.700;8.760;2022-10-22T13:58:31;1.85;;;1.52;;
70946;SDS011;58605;48.700;8.760;2022-10-22T14:00:57;2.67;;;2.05;;
70946;SDS011;58605;48.700;8.760;2022-10-22T14:03:25;3.00;;;1.70;;
70946;SDS011;58605;48.700;8.760;2022-10-22T14:05:55;2.65;;;1.80;;
70946;SDS011;58605;48.700;8.760;2022-10-22T14:08:22;3.80;;;2.03;;
70946;SDS011;58605;48.700;8.760;2022-10-22T14:10:50;3.97;;;1.85;;
70946;SDS011;58605;48.700;8.760;2022-10-22T14:13:16;2.37;;;1.67;;
70946;SDS011;58605;48.700;8.760;2022-10-22T14:15:43;2.75;;;1.90;;
70946;SDS011;58605;48.700;8.760;2022-10-22T14:18:13;1.90;;;1.50;;
70946;SDS011;58605;48.700;8.760;2022-10-22T14:20:56;4.00;;;1.90;;
70946;SDS011;58605;48.700;8.760;2022-10-22T14:23:31;1.77;;;1.55;;
70946;SDS011;58605;48.700;8.760;2022-10-22T14:26:05;4.47;;;1.70;;
70946;SDS011;58605;48.700;8.760;2022-10-22T14:28:32;2.40;;;1.50;;
70946;SDS011;58605;48.700;8.760;2022-10-22T14:30:59;3.35;;;1.70;;
70946;SDS011;58605;48.700;8.760;2022-10-22T14:33:25;2.60;;;1.63;;
70946;SDS011;58605;48.700;8.760;2022-10-22T14:35:53;5.82;;;1.80;;
70946;SDS011;58605;48.700;8.760;2022-10-22T14:38:21;2.57;;;1.50;;
70946;SDS011;58605;48.700;8.760;2022-10-22T14:40:47;3.33;;;2.20;;
70946;SDS011;58605;48.700;8.760;2022-10-22T14:43:17;3.80;;;2.10;;
70946;SDS011;58605;48.700;8.760;2022-10-22T14:45:45;3.17;;;1.75;;
70946;SDS011;58605;48.700;8.760;2022-10-22T14:48:11;4.85;;;2.30;;
70946;SDS011;58605;48.700;8.760;2022-10-22T14:50:37;2.40;;;1.67;;
70946;SDS011;58605;48.700;8.760;2022-10-22T14:53:05;1.95;;;1.67;;
70946;SDS011;58605;48.700;8.760;2022-10-22T14:55:31;3.55;;;1.65;;
70946;SDS011;58605;48.700;8.760;2022-10-22T14:57:57;2.90;;;1.83;;
70946;SDS011;58605;48.700;8.760;2022-10-22T15:00:23;3.67;;;1.70;;
70946;SDS011;58605;48.700;8.760;2022-10-22T15:02:49;2.67;;;1.70;;
70946;SDS011;58605;48.700;8.760;2022-10-22T15:05:15;4.70;;;1.70;;
70946;SDS011;58605;48.700;8.760;2022-10-22T15:07:42;2.65;;;1.60;;
70946;SDS011;58605;48.700;8.760;2022-10-22T15:10:09;1.88;;;1.40;;
70946;SDS011;58605;48.700;8.760;2022-10-22T15:12:35;1.93;;;1.60;;
70946;SDS011;58605;48.700;8.760;2022-10-22T15:15:02;5.13;;;2.17;;